createdAt,value
2019-03-17T00:00:11.079Z,8.80
2019-03-17T00:02:39.982Z,8.60
2019-03-17T00:05:08.938Z,8.70
2019-03-17T00:07:37.887Z,8.70
2019-03-17T00:10:07.034Z,8.70
2019-03-17T00:12:35.953Z,8.70
2019-03-17T00:15:06.593Z,8.70
2019-03-17T00:17:35.697Z,8.60
2019-03-17T00:20:06.053Z,8.60
2019-03-17T00:22:34.956Z,8.70
2019-03-17T00:25:09.555Z,8.60
2019-03-17T00:27:35.379Z,8.50
2019-03-17T00:30:06.115Z,8.40
2019-03-17T00:32:35.015Z,8.40
2019-03-17T00:35:04.443Z,8.40
2019-03-17T00:37:33.386Z,8.30
2019-03-17T00:40:02.323Z,8.30
2019-03-17T00:42:31.269Z,8.30
2019-03-17T00:45:00.331Z,8.30
2019-03-17T00:47:29.270Z,8.40
2019-03-17T00:49:58.174Z,8.30
2019-03-17T00:52:27.124Z,8.30
2019-03-17T00:54:56.038Z,8.20
2019-03-17T00:57:24.983Z,8.20
2019-03-17T00:59:53.887Z,8.20
2019-03-17T01:02:22.843Z,8.10
2019-03-17T01:04:56.281Z,8.10
2019-03-17T01:07:22.343Z,8.00
2019-03-17T01:09:51.238Z,8.10
2019-03-17T01:12:20.206Z,8.10
2019-03-17T01:14:49.096Z,8.00
2019-03-17T01:17:18.050Z,8.00
2019-03-17T01:19:46.951Z,8.00
2019-03-17T01:22:15.904Z,8.10
2019-03-17T01:24:44.830Z,8.10
2019-03-17T01:27:13.863Z,8.00
2019-03-17T01:29:42.768Z,8.00
2019-03-17T01:32:11.752Z,8.00
2019-03-17T01:34:40.656Z,8.00
2019-03-17T01:37:09.611Z,8.00
2019-03-17T01:39:38.519Z,7.90
2019-03-17T01:42:07.467Z,7.80
2019-03-17T01:44:36.366Z,7.90
2019-03-17T01:47:05.312Z,8.00
2019-03-17T01:49:34.258Z,7.90
2019-03-17T01:52:04.006Z,8.00
2019-03-17T01:54:32.927Z,7.90
2019-03-17T01:57:01.832Z,8.00
2019-03-17T01:59:30.882Z,8.00
2019-03-17T02:01:59.819Z,7.90
2019-03-17T02:04:28.763Z,7.90
2019-03-17T02:06:57.731Z,7.90
2019-03-17T02:09:26.710Z,7.90
2019-03-17T02:11:55.619Z,7.90
2019-03-17T02:14:24.625Z,7.90
2019-03-17T02:16:53.530Z,7.90
2019-03-17T02:19:22.474Z,7.90
2019-03-17T02:21:51.378Z,7.90
2019-03-17T02:24:20.325Z,7.90
2019-03-17T02:26:49.233Z,7.90
2019-03-17T02:29:18.416Z,7.90
2019-03-17T02:31:47.321Z,7.90
2019-03-17T02:34:16.271Z,7.80
2019-03-17T02:36:45.178Z,7.90
2019-03-17T02:39:14.124Z,7.80
2019-03-17T02:41:43.032Z,7.80
2019-03-17T02:44:11.985Z,7.90
2019-03-17T02:46:40.902Z,7.80
2019-03-17T02:49:09.838Z,7.90
2019-03-17T02:51:38.765Z,7.90
2019-03-17T02:54:07.720Z,7.90
2019-03-17T02:56:36.634Z,7.90
2019-03-17T02:59:05.576Z,7.80
2019-03-17T03:01:34.480Z,7.80
2019-03-17T03:04:03.421Z,7.90
2019-03-17T03:06:32.329Z,7.80
2019-03-17T03:09:01.268Z,7.80
2019-03-17T03:11:30.162Z,7.80
2019-03-17T03:13:59.129Z,7.80
2019-03-17T03:16:28.036Z,7.80
2019-03-17T03:18:56.939Z,7.80
2019-03-17T03:21:25.888Z,7.80
2019-03-17T03:23:54.801Z,7.80
2019-03-17T03:26:23.745Z,7.80
2019-03-17T03:28:52.645Z,7.80
2019-03-17T03:31:21.624Z,7.80
2019-03-17T03:33:51.143Z,7.90
2019-03-17T03:36:20.093Z,7.90
2019-03-17T03:38:48.993Z,7.80
2019-03-17T03:41:17.959Z,7.80
2019-03-17T03:43:46.879Z,7.90
2019-03-17T03:46:15.822Z,7.90
2019-03-17T03:48:44.739Z,7.90
2019-03-17T03:51:13.692Z,7.90
2019-03-17T03:53:42.593Z,7.90
2019-03-17T03:56:11.543Z,7.90
2019-03-17T03:58:40.444Z,7.90
2019-03-17T04:01:09.392Z,7.90
2019-03-17T04:03:38.305Z,7.90
2019-03-17T04:06:07.259Z,7.90
2019-03-17T04:08:36.156Z,7.90
2019-03-17T04:11:05.100Z,7.90
2019-03-17T04:13:34.759Z,7.90
2019-03-17T04:16:03.726Z,7.90
2019-03-17T04:18:32.627Z,7.90
2019-03-17T04:21:01.576Z,7.90
2019-03-17T04:23:30.495Z,7.90
2019-03-17T04:25:59.448Z,7.90
2019-03-17T04:28:28.352Z,7.90
2019-03-17T04:30:57.268Z,7.90
2019-03-17T04:33:26.613Z,7.90
2019-03-17T04:35:55.554Z,7.90
2019-03-17T04:38:24.495Z,7.80
2019-03-17T04:40:53.604Z,7.50
2019-03-17T04:43:22.546Z,7.40
2019-03-17T04:45:51.458Z,7.20
2019-03-17T04:48:20.397Z,7.10
2019-03-17T04:50:49.304Z,7.00
2019-03-17T04:53:18.322Z,7.00
2019-03-17T04:55:47.266Z,6.80
2019-03-17T04:58:16.278Z,6.80
2019-03-17T05:00:45.182Z,6.80
2019-03-17T05:03:14.125Z,6.70
2019-03-17T05:05:43.022Z,6.70
2019-03-17T05:08:11.979Z,6.70
2019-03-17T05:10:40.900Z,6.70
2019-03-17T05:13:09.895Z,6.60
2019-03-17T05:15:38.805Z,6.60
2019-03-17T05:18:07.750Z,6.70
2019-03-17T05:20:36.777Z,6.70
2019-03-17T05:23:06.081Z,6.60
2019-03-17T05:25:35.134Z,6.60
2019-03-17T05:28:04.082Z,6.60
2019-03-17T05:30:33.054Z,6.50
2019-03-17T05:33:02.343Z,6.50
2019-03-17T05:35:31.271Z,6.50
2019-03-17T05:38:00.214Z,6.40
2019-03-17T05:40:29.125Z,6.40
2019-03-17T05:42:58.071Z,6.40
2019-03-17T05:45:27.007Z,6.40
2019-03-17T05:47:55.903Z,6.30
2019-03-17T05:50:24.856Z,6.30
2019-03-17T05:52:53.766Z,6.30
2019-03-17T05:55:22.743Z,6.30
2019-03-17T05:57:51.722Z,6.30
2019-03-17T06:00:20.691Z,6.10
2019-03-17T06:02:49.595Z,6.10
2019-03-17T06:05:18.539Z,6.10
2019-03-17T06:07:47.475Z,6.00
2019-03-17T06:10:16.423Z,6.00
2019-03-17T06:12:45.334Z,6.00
2019-03-17T06:15:14.336Z,6.00
2019-03-17T06:17:43.236Z,6.10
2019-03-17T06:20:12.880Z,6.00
2019-03-17T06:22:41.784Z,6.00
2019-03-17T06:25:11.253Z,6.10
2019-03-17T06:27:40.147Z,6.00
2019-03-17T06:30:11.956Z,6.10
2019-03-17T06:32:40.865Z,6.00
2019-03-17T06:35:09.808Z,6.10
2019-03-17T06:37:38.721Z,6.00
2019-03-17T06:40:10.943Z,6.00
2019-03-17T06:42:40.815Z,6.00
2019-03-17T06:45:11.172Z,6.00
2019-03-17T06:47:40.524Z,6.00
2019-03-17T06:50:16.210Z,6.10
2019-03-17T06:52:45.117Z,6.10
2019-03-17T06:55:15.676Z,6.10
2019-03-17T06:57:44.592Z,6.20
2019-03-17T07:00:14.633Z,6.10
2019-03-17T07:02:43.906Z,6.10
2019-03-17T07:05:13.764Z,6.20
2019-03-17T07:07:44.423Z,6.20
2019-03-17T07:10:13.386Z,6.20
2019-03-17T07:12:42.399Z,6.20
2019-03-17T07:15:12.165Z,6.10
2019-03-17T07:17:41.258Z,6.10
2019-03-17T07:20:12.247Z,6.10
2019-03-17T07:22:42.652Z,5.80
2019-03-17T07:25:11.582Z,5.60
2019-03-17T07:27:40.572Z,5.30
2019-03-17T07:30:14.536Z,5.30
2019-03-17T07:32:43.432Z,5.30
2019-03-17T07:35:12.393Z,5.50
2019-03-17T07:37:41.347Z,5.80
2019-03-17T07:40:12.025Z,6.00
2019-03-17T07:42:41.048Z,6.10
2019-03-17T07:45:11.561Z,6.20
2019-03-17T07:47:40.532Z,6.20
2019-03-17T07:50:11.667Z,6.30
2019-03-17T07:52:40.652Z,6.40
2019-03-17T07:55:10.380Z,6.40
2019-03-17T07:57:39.380Z,6.40
2019-03-17T08:00:13.047Z,6.40
2019-03-17T08:02:42.042Z,6.60
2019-03-17T08:05:11.253Z,6.60
2019-03-17T08:07:40.200Z,6.60
2019-03-17T08:10:14.141Z,6.70
2019-03-17T08:12:43.206Z,6.50
2019-03-17T08:15:13.272Z,6.50
2019-03-17T08:17:42.245Z,6.30
2019-03-17T08:20:11.975Z,6.20
2019-03-17T08:22:40.969Z,6.10
2019-03-17T08:25:11.364Z,6.00
2019-03-17T08:27:40.381Z,5.90
2019-03-17T08:30:14.454Z,5.80
2019-03-17T08:32:43.413Z,5.80
2019-03-17T08:35:12.380Z,5.80
2019-03-17T08:37:41.340Z,5.90
2019-03-17T08:40:16.121Z,6.00
2019-03-17T08:42:45.189Z,6.20
2019-03-17T08:45:14.792Z,6.10
2019-03-17T08:47:56.652Z,6.20
2019-03-17T08:50:16.973Z,6.10
2019-03-17T08:52:45.950Z,6.10
2019-03-17T08:55:14.840Z,6.10
2019-03-17T08:57:43.776Z,6.10
2019-03-17T09:00:19.621Z,6.10
2019-03-17T09:02:48.632Z,6.20
2019-03-17T09:05:17.598Z,6.10
2019-03-17T09:07:46.588Z,5.90
2019-03-17T09:10:16.304Z,5.60
2019-03-17T09:12:45.201Z,5.60
2019-03-17T09:15:14.164Z,5.50
2019-03-17T09:17:43.062Z,5.50
2019-03-17T09:20:14.277Z,5.60
2019-03-17T09:22:43.183Z,5.80
2019-03-17T09:25:12.107Z,6.00
2019-03-17T09:27:41.020Z,6.30
2019-03-17T09:30:15.519Z,6.60
2019-03-17T09:32:44.444Z,6.70
2019-03-17T09:35:13.379Z,6.70
2019-03-17T09:37:42.284Z,6.80
2019-03-17T09:40:13.222Z,6.90
2019-03-17T09:42:42.130Z,7.10
2019-03-17T09:45:12.678Z,7.10
2019-03-17T09:47:41.648Z,7.10
2019-03-17T09:50:13.036Z,7.10
2019-03-17T09:52:41.943Z,7.10
2019-03-17T09:55:10.997Z,7.00
2019-03-17T09:57:39.889Z,7.00
2019-03-17T10:00:22.113Z,7.30
2019-03-17T10:02:51.111Z,7.40
2019-03-17T10:05:20.072Z,7.40
2019-03-17T10:07:48.974Z,7.30
2019-03-17T10:10:20.850Z,7.30
2019-03-17T10:12:49.855Z,7.20
2019-03-17T10:15:19.912Z,7.10
2019-03-17T10:17:50.301Z,7.10
2019-03-17T10:20:20.058Z,7.10
2019-03-17T10:22:48.968Z,7.20
2019-03-17T10:25:17.923Z,7.30
2019-03-17T10:27:46.882Z,7.40
2019-03-17T10:30:20.618Z,7.70
2019-03-17T10:32:49.862Z,7.80
2019-03-17T10:35:18.869Z,7.80
2019-03-17T10:37:47.771Z,7.60
2019-03-17T10:40:17.911Z,7.60
2019-03-17T10:42:46.881Z,7.60
2019-03-17T10:45:15.896Z,7.70
2019-03-17T10:47:44.946Z,7.80
2019-03-17T10:50:20.740Z,7.90
2019-03-17T10:52:49.696Z,7.90
2019-03-17T10:55:18.660Z,7.60
2019-03-17T10:57:47.665Z,7.60
2019-03-17T11:00:21.575Z,7.40
2019-03-17T11:02:50.535Z,7.60
2019-03-17T11:05:19.444Z,7.70
2019-03-17T11:07:48.382Z,7.70
2019-03-17T11:10:17.287Z,7.70
2019-03-17T11:12:46.238Z,8.10
2019-03-17T11:15:22.243Z,8.40
2019-03-17T11:17:51.182Z,8.40
2019-03-17T11:20:20.101Z,8.60
2019-03-17T11:22:49.048Z,8.60
2019-03-17T11:25:19.332Z,8.60
2019-03-17T11:27:48.370Z,8.40
2019-03-17T11:30:19.355Z,8.20
2019-03-17T11:32:48.386Z,8.10
2019-03-17T11:35:17.296Z,8.10
2019-03-17T11:37:46.252Z,8.20
2019-03-17T11:40:19.623Z,8.40
2019-03-17T11:42:50.043Z,8.50
2019-03-17T11:45:19.291Z,8.50
2019-03-17T11:47:48.412Z,8.40
2019-03-17T11:50:21.987Z,8.20
2019-03-17T11:52:51.379Z,7.80
2019-03-17T11:55:20.292Z,7.50
2019-03-17T11:57:49.238Z,7.30
2019-03-17T12:00:22.185Z,7.10
2019-03-17T12:02:51.122Z,7.00
2019-03-17T12:05:20.034Z,7.00
2019-03-17T12:07:48.971Z,7.00
2019-03-17T12:10:20.351Z,7.20
2019-03-17T12:12:49.491Z,7.40
2019-03-17T12:15:32.564Z,7.70
2019-03-17T12:18:01.518Z,7.80
2019-03-17T12:20:30.430Z,7.60
2019-03-17T12:22:59.367Z,7.60
2019-03-17T12:25:28.267Z,7.60
2019-03-17T12:27:57.236Z,7.60
2019-03-17T12:30:27.966Z,7.60
2019-03-17T12:32:57.309Z,7.60
2019-03-17T12:35:26.207Z,7.50
2019-03-17T12:37:55.149Z,7.50
2019-03-17T12:40:24.049Z,7.80
2019-03-17T12:42:52.960Z,8.10
2019-03-17T12:45:21.918Z,8.30
2019-03-17T12:47:50.823Z,8.10
2019-03-17T12:50:21.369Z,8.00
2019-03-17T12:52:50.274Z,8.00
2019-03-17T12:55:19.224Z,8.20
2019-03-17T12:57:48.142Z,8.20
2019-03-17T13:00:25.250Z,8.30
2019-03-17T13:02:54.163Z,8.10
2019-03-17T13:05:23.110Z,8.10
2019-03-17T13:07:52.371Z,8.20
2019-03-17T13:10:22.325Z,8.10
2019-03-17T13:12:51.228Z,8.00
2019-03-17T13:15:20.271Z,8.10
2019-03-17T13:17:49.176Z,8.20
2019-03-17T13:20:20.510Z,8.30
2019-03-17T13:22:49.898Z,8.20
2019-03-17T13:25:18.854Z,7.90
2019-03-17T13:27:47.778Z,8.00
2019-03-17T13:30:18.495Z,8.00
2019-03-17T13:32:47.499Z,8.30
2019-03-17T13:35:16.433Z,8.70
2019-03-17T13:37:45.346Z,8.60
2019-03-17T13:40:28.122Z,8.20
2019-03-17T13:42:46.915Z,8.00
2019-03-17T13:45:16.483Z,7.90
2019-03-17T13:47:45.625Z,7.80
2019-03-17T13:50:22.208Z,7.70
2019-03-17T13:52:51.109Z,7.70
2019-03-17T13:55:20.062Z,7.70
2019-03-17T13:58:00.569Z,7.90
2019-03-17T14:00:29.561Z,7.90
2019-03-17T14:02:58.514Z,7.90
2019-03-17T14:05:27.480Z,7.80
2019-03-17T14:07:56.392Z,7.80
2019-03-17T14:10:25.293Z,7.90
2019-03-17T14:12:54.262Z,7.90
2019-03-17T14:15:23.169Z,7.90
2019-03-17T14:17:52.157Z,8.00
2019-03-17T14:20:23.959Z,8.10
2019-03-17T14:22:53.128Z,8.10
2019-03-17T14:25:25.386Z,8.00
2019-03-17T14:27:54.456Z,7.90
2019-03-17T14:30:23.533Z,7.90
2019-03-17T14:32:52.541Z,7.70
2019-03-17T14:35:22.174Z,7.70
2019-03-17T14:37:51.231Z,7.90
2019-03-17T14:40:21.305Z,7.90
2019-03-17T14:42:51.317Z,7.60
2019-03-17T14:45:20.393Z,7.50
2019-03-17T14:47:49.387Z,7.40
2019-03-17T14:50:24.038Z,7.40
2019-03-17T14:52:53.075Z,7.50
2019-03-17T14:55:22.016Z,7.50
2019-03-17T14:57:50.977Z,7.50
2019-03-17T15:00:23.695Z,7.50
2019-03-17T15:02:52.890Z,7.70
2019-03-17T15:05:25.042Z,7.70
2019-03-17T15:07:53.978Z,7.70
2019-03-17T15:10:24.181Z,7.70
2019-03-17T15:12:53.285Z,7.70
2019-03-17T15:15:23.111Z,7.70
2019-03-17T15:17:54.208Z,7.70
2019-03-17T15:20:27.806Z,7.70
2019-03-17T15:22:57.013Z,7.70
2019-03-17T15:25:25.958Z,7.50
2019-03-17T15:27:54.930Z,7.50
2019-03-17T15:30:27.864Z,7.50
2019-03-17T15:32:56.911Z,7.40
2019-03-17T15:35:25.818Z,7.50
2019-03-17T15:37:54.808Z,7.30
2019-03-17T15:40:24.054Z,7.30
2019-03-17T15:42:52.987Z,7.20
2019-03-17T15:45:22.805Z,7.20
2019-03-17T15:47:51.797Z,7.30
2019-03-17T15:50:30.478Z,7.30
2019-03-17T15:52:59.477Z,7.20
2019-03-17T15:55:28.567Z,7.10
2019-03-17T15:57:59.129Z,7.10
2019-03-17T16:00:28.040Z,7.10
2019-03-17T16:02:57.043Z,6.90
2019-03-17T16:05:26.133Z,6.90
2019-03-17T16:07:55.169Z,6.90
2019-03-17T16:10:26.350Z,6.80
2019-03-17T16:12:56.946Z,6.80
2019-03-17T16:15:26.158Z,6.70
2019-03-17T16:17:56.149Z,6.70
2019-03-17T16:20:28.385Z,6.70
2019-03-17T16:22:57.609Z,6.70
2019-03-17T16:25:28.239Z,6.70
2019-03-17T16:27:57.266Z,6.70
2019-03-17T16:30:30.520Z,6.60
2019-03-17T16:32:59.521Z,6.60
2019-03-17T16:35:28.473Z,6.50
2019-03-17T16:37:57.372Z,6.40
2019-03-17T16:40:30.766Z,6.40
2019-03-17T16:42:59.688Z,6.30
2019-03-17T16:45:28.626Z,6.40
2019-03-17T16:47:57.643Z,6.40
2019-03-17T16:50:26.598Z,6.40
2019-03-17T16:52:55.522Z,6.30
2019-03-17T16:55:24.468Z,6.30
2019-03-17T16:57:53.370Z,6.20
2019-03-17T17:00:23.109Z,6.20
2019-03-17T17:02:52.235Z,6.10
2019-03-17T17:05:25.131Z,6.10
2019-03-17T17:07:54.108Z,6.00
2019-03-17T17:10:27.134Z,5.90
2019-03-17T17:12:56.058Z,5.90
2019-03-17T17:15:29.510Z,5.90
2019-03-17T17:17:58.423Z,5.80
2019-03-17T17:20:35.497Z,5.80
2019-03-17T17:23:04.495Z,5.90
2019-03-17T17:25:33.442Z,5.80
2019-03-17T17:28:02.354Z,5.80
2019-03-17T17:30:31.317Z,5.80
2019-03-17T17:33:00.628Z,5.80
2019-03-17T17:35:29.596Z,5.80
2019-03-17T17:37:58.484Z,5.80
2019-03-17T17:40:28.049Z,5.90
2019-03-17T17:42:56.960Z,5.80
2019-03-17T17:45:26.615Z,5.80
2019-03-17T17:47:55.528Z,5.80
2019-03-17T17:50:29.240Z,5.80
2019-03-17T17:52:58.266Z,5.80
2019-03-17T17:55:27.234Z,5.80
2019-03-17T17:57:56.349Z,5.80
2019-03-17T18:00:26.979Z,5.70
2019-03-17T18:02:58.521Z,5.70
2019-03-17T18:05:26.938Z,5.70
2019-03-17T18:07:55.938Z,5.70
2019-03-17T18:10:24.968Z,5.70
2019-03-17T18:12:53.943Z,5.70
2019-03-17T18:15:27.589Z,5.70
2019-03-17T18:17:56.712Z,5.70
2019-03-17T18:20:25.614Z,5.60
2019-03-17T18:22:54.570Z,5.60
2019-03-17T18:25:24.075Z,5.60
2019-03-17T18:27:53.101Z,5.60
2019-03-17T18:30:24.164Z,5.60
2019-03-17T18:32:53.308Z,5.60
2019-03-17T18:35:22.232Z,5.50
2019-03-17T18:37:51.558Z,5.50
2019-03-17T18:40:23.374Z,5.50
2019-03-17T18:42:52.322Z,5.50
2019-03-17T18:45:26.397Z,5.50
2019-03-17T18:47:57.450Z,5.60
2019-03-17T18:50:25.905Z,5.60
2019-03-17T18:52:54.858Z,5.60
2019-03-17T18:55:23.756Z,5.60
2019-03-17T18:57:52.806Z,5.60
2019-03-17T19:00:25.519Z,5.60
2019-03-17T19:02:54.495Z,5.60
2019-03-17T19:05:23.410Z,5.60
2019-03-17T19:07:52.384Z,5.60
2019-03-17T19:10:21.707Z,5.70
2019-03-17T19:12:50.663Z,5.70
2019-03-17T19:15:24.028Z,5.70
2019-03-17T19:17:52.966Z,5.70
2019-03-17T19:20:22.762Z,5.70
2019-03-17T19:22:51.711Z,5.60
2019-03-17T19:25:21.799Z,5.60
2019-03-17T19:27:50.778Z,5.60
2019-03-17T19:30:20.705Z,5.50
2019-03-17T19:32:49.652Z,5.60
2019-03-17T19:35:18.562Z,5.50
2019-03-17T19:37:47.516Z,5.50
2019-03-17T19:40:17.726Z,5.40
2019-03-17T19:42:58.001Z,5.50
2019-03-17T19:45:17.255Z,5.60
2019-03-17T19:47:46.203Z,5.60
2019-03-17T19:50:17.108Z,5.60
2019-03-17T19:52:46.012Z,5.60
2019-03-17T19:55:14.963Z,5.70
2019-03-17T19:57:43.868Z,5.70
2019-03-17T20:00:20.442Z,5.70
2019-03-17T20:02:50.814Z,5.70
2019-03-17T20:05:19.832Z,5.70
2019-03-17T20:07:49.923Z,5.70
2019-03-17T20:10:24.830Z,5.70
2019-03-17T20:12:53.738Z,5.60
2019-03-17T20:15:22.859Z,5.40
2019-03-17T20:17:51.881Z,5.30
2019-03-17T20:20:20.841Z,5.30
2019-03-17T20:22:51.220Z,5.30
2019-03-17T20:25:20.214Z,5.30
2019-03-17T20:27:49.126Z,5.20
2019-03-17T20:30:18.891Z,5.30
2019-03-17T20:32:47.797Z,5.20
2019-03-17T20:35:16.878Z,5.30
2019-03-17T20:37:45.789Z,5.20
2019-03-17T20:40:15.900Z,5.10
2019-03-17T20:42:44.810Z,5.10
2019-03-17T20:45:15.740Z,5.10
2019-03-17T20:47:44.640Z,5.10
2019-03-17T20:50:17.520Z,5.10
2019-03-17T20:52:47.816Z,4.90
2019-03-17T20:55:16.841Z,4.80
2019-03-17T20:57:45.775Z,4.80
2019-03-17T21:00:22.239Z,4.80
2019-03-17T21:02:51.231Z,4.90
2019-03-17T21:05:20.227Z,4.80
2019-03-17T21:07:49.134Z,4.80
2019-03-17T21:10:18.386Z,4.80
2019-03-17T21:12:47.355Z,4.70
2019-03-17T21:15:18.369Z,4.70
2019-03-17T21:17:47.295Z,4.70
2019-03-17T21:20:20.638Z,4.70
2019-03-17T21:22:50.037Z,4.70
2019-03-17T21:25:18.985Z,4.70
2019-03-17T21:27:47.953Z,4.80
2019-03-17T21:30:27.807Z,4.80
2019-03-17T21:32:56.750Z,4.90
2019-03-17T21:35:25.791Z,4.90
2019-03-17T21:37:54.710Z,4.90
2019-03-17T21:40:23.681Z,5.00
2019-03-17T21:42:52.589Z,5.00
2019-03-17T21:45:21.548Z,5.00
2019-03-17T21:47:50.494Z,5.00
2019-03-17T21:50:20.394Z,5.00
2019-03-17T21:52:49.442Z,4.90
2019-03-17T21:55:18.352Z,4.90
2019-03-17T21:57:47.309Z,4.80
2019-03-17T22:00:17.412Z,4.70
2019-03-17T22:02:46.358Z,4.60
2019-03-17T22:05:15.565Z,4.50
2019-03-17T22:07:50.108Z,4.40
2019-03-17T22:10:17.358Z,4.40
2019-03-17T22:12:46.598Z,4.40
2019-03-17T22:15:17.572Z,4.30
2019-03-17T22:17:46.626Z,4.30
2019-03-17T22:20:16.034Z,4.20
2019-03-17T22:22:44.997Z,4.20
2019-03-17T22:25:15.036Z,4.10
2019-03-17T22:27:44.023Z,4.10
2019-03-17T22:30:15.205Z,4.10
2019-03-17T22:32:44.160Z,4.10
2019-03-17T22:35:13.058Z,4.10
2019-03-17T22:37:42.007Z,4.10
2019-03-17T22:40:14.854Z,4.20
2019-03-17T22:42:43.825Z,4.40
2019-03-17T22:45:17.131Z,4.50
2019-03-17T22:47:46.065Z,4.50
2019-03-17T22:50:20.211Z,4.60
2019-03-17T22:52:49.256Z,4.60
2019-03-17T22:55:18.191Z,4.60
2019-03-17T22:57:47.148Z,4.50
2019-03-17T23:00:35.968Z,4.40
2019-03-17T23:03:05.538Z,4.30
2019-03-17T23:05:34.510Z,4.00
2019-03-17T23:08:03.456Z,3.90
2019-03-17T23:10:34.595Z,3.90
2019-03-17T23:13:03.619Z,3.80
2019-03-17T23:15:35.561Z,3.90
2019-03-17T23:18:03.609Z,3.80
2019-03-17T23:20:32.514Z,3.90
2019-03-17T23:23:03.684Z,4.00
2019-03-17T23:25:32.683Z,4.10
2019-03-17T23:28:01.637Z,4.20
2019-03-17T23:30:30.759Z,4.20
2019-03-17T23:32:59.659Z,4.20
2019-03-17T23:35:28.627Z,4.20
2019-03-17T23:37:57.516Z,4.30
2019-03-17T23:40:26.633Z,4.30
2019-03-17T23:42:55.528Z,4.30
2019-03-17T23:45:24.545Z,4.40
2019-03-17T23:47:53.475Z,4.40
2019-03-17T23:50:22.491Z,4.40
2019-03-17T23:52:51.391Z,4.50
2019-03-17T23:55:20.346Z,4.60
2019-03-17T23:57:49.259Z,4.60
